createdAt,value
2022-08-03T00:09:47.905Z,101459.00
2022-08-03T00:20:10.666Z,101453.00
2022-08-03T00:30:34.225Z,101421.00
2022-08-03T00:40:56.539Z,101442.00
2022-08-03T00:51:21.014Z,101437.00
2022-08-03T01:01:42.854Z,101408.00
2022-08-03T01:12:12.196Z,101419.00
2022-08-03T01:22:51.994Z,101413.00
2022-08-03T01:33:21.340Z,101404.00
2022-08-03T01:44:28.447Z,101402.00
2022-08-03T01:54:33.905Z,101383.00
2022-08-03T02:04:57.935Z,101394.00
2022-08-03T02:15:22.227Z,101400.00
2022-08-03T02:25:47.747Z,101386.00
2022-08-03T02:36:14.520Z,101389.00
2022-08-03T02:46:40.741Z,101394.00
2022-08-03T02:57:04.361Z,101394.00
2022-08-03T03:07:28.852Z,101387.00
2022-08-03T03:17:55.471Z,101401.00
2022-08-03T03:28:17.068Z,101395.00
2022-08-03T03:38:39.810Z,101409.00
2022-08-03T03:49:01.360Z,101396.00
2022-08-03T03:59:24.564Z,101413.00
2022-08-03T04:10:14.113Z,101402.00
2022-08-03T04:20:41.788Z,101396.00
2022-08-03T04:31:05.555Z,101390.00
2022-08-03T04:41:29.951Z,101396.00
2022-08-03T04:51:51.856Z,101404.00
2022-08-03T05:02:17.237Z,101404.00
2022-08-03T05:12:41.558Z,101409.00
2022-08-03T05:23:04.719Z,101408.00
2022-08-03T05:33:26.125Z,101397.00
2022-08-03T05:43:49.126Z,101415.00
2022-08-03T05:54:10.888Z,101422.00
2022-08-03T06:04:33.948Z,101427.00
2022-08-03T06:14:55.426Z,101418.00
2022-08-03T06:25:19.397Z,101425.00
2022-08-03T06:35:46.096Z,101413.00
2022-08-03T06:46:11.020Z,101413.00
2022-08-03T06:56:34.492Z,101421.00
2022-08-03T07:06:58.542Z,101411.00
2022-08-03T07:17:20.316Z,101424.00
2022-08-03T07:27:50.025Z,101423.00
2022-08-03T07:38:15.080Z,101417.00
2022-08-03T07:48:38.704Z,101428.00
2022-08-03T07:59:02.604Z,101423.00
2022-08-03T08:09:26.469Z,101419.00
2022-08-03T08:19:51.754Z,101422.00
2022-08-03T08:30:19.432Z,101417.00
2022-08-03T08:40:41.497Z,101426.00
2022-08-03T08:51:05.117Z,101424.00
2022-08-03T09:01:28.174Z,101415.00
2022-08-03T09:12:01.234Z,101420.00
2022-08-03T09:22:34.758Z,101415.00
2022-08-03T09:33:02.855Z,101392.00
2022-08-03T09:43:25.931Z,101403.00
2022-08-03T09:53:58.969Z,101404.00
2022-08-03T10:04:22.264Z,101396.00
2022-08-03T10:14:45.752Z,101378.00
2022-08-03T10:25:09.962Z,101369.00
2022-08-03T10:35:33.497Z,101370.00
2022-08-03T10:45:56.009Z,101365.00
2022-08-03T10:56:55.351Z,101365.00
2022-08-03T11:07:23.829Z,101361.00
2022-08-03T11:18:11.235Z,101345.00
2022-08-03T11:28:34.980Z,101342.00
2022-08-03T11:39:17.301Z,101339.00
2022-08-03T11:49:40.447Z,101334.00
2022-08-03T12:00:04.996Z,101333.00
2022-08-03T12:10:26.666Z,101331.00
2022-08-03T12:20:52.212Z,101319.00
2022-08-03T12:31:14.036Z,101315.00
2022-08-03T12:41:39.396Z,101307.00
2022-08-03T12:52:07.253Z,101299.00
2022-08-03T13:02:30.624Z,101295.00
2022-08-03T13:12:53.556Z,101288.00
2022-08-03T13:23:22.546Z,101280.00
2022-08-03T13:33:46.095Z,101283.00
2022-08-03T13:44:28.975Z,101272.00
2022-08-03T13:54:51.639Z,101255.00
2022-08-03T14:05:14.603Z,101262.00
2022-08-03T14:15:37.591Z,101257.00
2022-08-03T14:26:01.401Z,101251.00
2022-08-03T14:36:23.038Z,101244.00
2022-08-03T14:46:46.475Z,101241.00
2022-08-03T14:57:08.163Z,101243.00
2022-08-03T15:07:30.752Z,101231.00
2022-08-03T15:18:00.494Z,101231.00
2022-08-03T15:28:23.846Z,101217.00
2022-08-03T15:38:45.457Z,101210.00
2022-08-03T15:49:08.419Z,101201.00
2022-08-03T15:59:31.738Z,101210.00
2022-08-03T16:09:54.357Z,101203.00
2022-08-03T16:20:30.980Z,101187.00
2022-08-03T16:30:58.067Z,101192.00
2022-08-03T16:41:19.521Z,101190.00
2022-08-03T16:51:50.105Z,101183.00
2022-08-03T17:02:20.128Z,101190.00
2022-08-03T17:12:43.523Z,101198.00
2022-08-03T17:23:33.902Z,101199.00
2022-08-03T17:33:57.454Z,101212.00
2022-08-03T17:44:31.985Z,101212.00
2022-08-03T17:55:56.441Z,101209.00
2022-08-03T18:06:12.774Z,101216.00
2022-08-03T18:16:39.564Z,101234.00
2022-08-03T18:27:03.208Z,101231.00
2022-08-03T18:37:29.764Z,101222.00
2022-08-03T18:48:04.949Z,101230.00
2022-08-03T18:58:35.829Z,101235.00
2022-08-03T19:09:04.806Z,101240.00
2022-08-03T19:19:43.995Z,101239.00
2022-08-03T19:30:21.912Z,101241.00
2022-08-03T19:40:52.800Z,101238.00
2022-08-03T19:51:14.330Z,101247.00
2022-08-03T20:01:50.127Z,101235.00
2022-08-03T20:12:26.433Z,101239.00
2022-08-03T20:22:54.057Z,101231.00
2022-08-03T20:33:19.560Z,101230.00
2022-08-03T20:43:51.153Z,101226.00
2022-08-03T20:54:22.482Z,101222.00
2022-08-03T21:13:07.969Z,101222.00
2022-08-03T21:16:02.492Z,101230.00
2022-08-03T21:26:13.892Z,101240.00
2022-08-03T21:36:37.477Z,101233.00
2022-08-03T21:47:03.357Z,101234.00
2022-08-03T21:57:27.219Z,101226.00
2022-08-03T22:07:51.116Z,101235.00
2022-08-03T22:18:12.751Z,101224.00
2022-08-03T22:28:36.478Z,101227.00
2022-08-03T22:38:58.238Z,101243.00
2022-08-03T22:49:22.179Z,101244.00
2022-08-03T22:59:47.251Z,101242.00
2022-08-03T23:10:12.067Z,101241.00
2022-08-03T23:20:34.216Z,101236.00
2022-08-03T23:30:57.778Z,101235.00
2022-08-03T23:41:20.382Z,101233.00
2022-08-03T23:51:52.274Z,101230.00
